sensor_id;sensor_type;location;lat;lon;timestamp;pressure;altitude;pressure_sealevel;temperature;humidity
78444;BME280;67739;52.986;8.894;2023-06-22T00:00:51;102000.91;;;20.94;56.10
78444;BME280;67739;52.986;8.894;2023-06-22T00:03:21;101997.66;;;20.89;55.95
78444;BME280;67739;52.986;8.894;2023-06-22T00:05:48;102000.81;;;20.82;56.29
78444;BME280;67739;52.986;8.894;2023-06-22T00:08:14;102007.47;;;20.78;56.55
78444;BME280;67739;52.986;8.894;2023-06-22T00:10:40;102006.84;;;20.75;56.32
78444;BME280;67739;52.986;8.894;2023-06-22T00:13:09;102013.59;;;20.69;56.57
78444;BME280;67739;52.986;8.894;2023-06-22T00:15:36;102006.72;;;20.64;56.37
78444;BME280;67739;52.986;8.894;2023-06-22T00:18:02;102002.50;;;20.60;56.49
78444;BME280;67739;52.986;8.894;2023-06-22T00:20:28;102008.25;;;20.55;56.89
78444;BME280;67739;52.986;8.894;2023-06-22T00:22:54;102004.00;;;20.51;57.00
78444;BME280;67739;52.986;8.894;2023-06-22T00:25:20;102003.47;;;20.46;57.14
78444;BME280;67739;52.986;8.894;2023-06-22T00:27:46;102009.22;;;20.41;57.16
78444;BME280;67739;52.986;8.894;2023-06-22T00:30:11;102013.13;;;20.37;57.31
78444;BME280;67739;52.986;8.894;2023-06-22T00:32:37;102007.13;;;20.32;57.24
78444;BME280;67739;52.986;8.894;2023-06-22T00:35:02;102005.59;;;20.28;57.50
78444;BME280;67739;52.986;8.894;2023-06-22T00:37:28;102010.38;;;20.25;57.21
78444;BME280;67739;52.986;8.894;2023-06-22T00:39:55;102011.56;;;20.21;57.47
78444;BME280;67739;52.986;8.894;2023-06-22T00:42:20;102012.75;;;20.17;57.50
78444;BME280;67739;52.986;8.894;2023-06-22T00:44:46;102000.31;;;20.12;57.52
78444;BME280;67739;52.986;8.894;2023-06-22T00:47:14;102012.41;;;20.08;57.65
78444;BME280;67739;52.986;8.894;2023-06-22T00:49:41;102006.31;;;20.05;57.63
78444;BME280;67739;52.986;8.894;2023-06-22T00:52:06;102006.63;;;20.00;57.70
78444;BME280;67739;52.986;8.894;2023-06-22T00:54:42;102009.53;;;19.97;57.81
78444;BME280;67739;52.986;8.894;2023-06-22T00:57:12;102014.31;;;19.94;57.99
78444;BME280;67739;52.986;8.894;2023-06-22T00:59:42;102007.22;;;19.91;57.92
78444;BME280;67739;52.986;8.894;2023-06-22T01:02:07;102003.88;;;19.88;58.15
78444;BME280;67739;52.986;8.894;2023-06-22T01:04:37;102001.34;;;19.85;58.33
78444;BME280;67739;52.986;8.894;2023-06-22T01:09:44;102010.00;;;19.77;58.38
78444;BME280;67739;52.986;8.894;2023-06-22T01:12:11;102002.94;;;19.74;58.54
78444;BME280;67739;52.986;8.894;2023-06-22T01:14:58;102007.72;;;19.71;58.78
78444;BME280;67739;52.986;8.894;2023-06-22T01:17:26;102001.59;;;19.67;58.54
78444;BME280;67739;52.986;8.894;2023-06-22T01:19:54;101998.09;;;19.65;58.60
78444;BME280;67739;52.986;8.894;2023-06-22T01:22:24;101991.16;;;19.61;58.66
78444;BME280;67739;52.986;8.894;2023-06-22T01:30:01;101990.00;;;19.51;58.87
78444;BME280;67739;52.986;8.894;2023-06-22T01:32:33;101989.22;;;19.49;58.91
78444;BME280;67739;52.986;8.894;2023-06-22T01:35:01;101987.66;;;19.45;59.12
78444;BME280;67739;52.986;8.894;2023-06-22T01:37:28;101992.31;;;19.43;58.85
78444;BME280;67739;52.986;8.894;2023-06-22T01:39:55;101984.47;;;19.38;58.86
78444;BME280;67739;52.986;8.894;2023-06-22T01:42:23;101989.22;;;19.35;59.39
78444;BME280;67739;52.986;8.894;2023-06-22T01:44:50;101984.00;;;19.32;59.19
78444;BME280;67739;52.986;8.894;2023-06-22T01:47:17;101978.75;;;19.29;59.08
78444;BME280;67739;52.986;8.894;2023-06-22T01:49:43;101970.78;;;19.26;59.13
78444;BME280;67739;52.986;8.894;2023-06-22T01:52:09;101968.25;;;19.23;59.38
78444;BME280;67739;52.986;8.894;2023-06-22T01:54:34;101965.75;;;19.20;59.28
78444;BME280;67739;52.986;8.894;2023-06-22T01:56:59;101960.53;;;19.17;59.28
78444;BME280;67739;52.986;8.894;2023-06-22T01:59:38;101974.31;;;19.14;59.63
78444;BME280;67739;52.986;8.894;2023-06-22T02:02:10;101976.34;;;19.10;59.36
78444;BME280;67739;52.986;8.894;2023-06-22T02:04:46;101981.13;;;19.06;59.38
78444;BME280;67739;52.986;8.894;2023-06-22T02:07:14;101979.50;;;19.04;59.59
78444;BME280;67739;52.986;8.894;2023-06-22T02:09:44;101986.09;;;19.00;59.58
78444;BME280;67739;52.986;8.894;2023-06-22T02:12:11;101991.72;;;18.97;59.35
78444;BME280;67739;52.986;8.894;2023-06-22T02:14:38;101986.38;;;18.95;59.79
78444;BME280;67739;52.986;8.894;2023-06-22T02:17:04;101974.81;;;18.92;59.52
78444;BME280;67739;52.986;8.894;2023-06-22T02:19:36;101991.22;;;18.90;59.80
78444;BME280;67739;52.986;8.894;2023-06-22T02:22:01;101984.16;;;18.88;59.73
78444;BME280;67739;52.986;8.894;2023-06-22T02:24:26;101989.78;;;18.85;59.72
78444;BME280;67739;52.986;8.894;2023-06-22T02:26:52;101980.84;;;18.83;60.03
78444;BME280;67739;52.986;8.894;2023-06-22T02:29:17;101982.78;;;18.81;59.96
78444;BME280;67739;52.986;8.894;2023-06-22T02:31:43;101986.56;;;18.78;59.97
78444;BME280;67739;52.986;8.894;2023-06-22T02:34:08;101973.22;;;18.75;59.98
78444;BME280;67739;52.986;8.894;2023-06-22T02:36:33;101981.47;;;18.74;60.05
78444;BME280;67739;52.986;8.894;2023-06-22T02:38:59;101978.06;;;18.70;60.01
78444;BME280;67739;52.986;8.894;2023-06-22T02:41:26;101982.72;;;18.68;59.91
78444;BME280;67739;52.986;8.894;2023-06-22T02:43:52;101974.66;;;18.66;60.22
78444;BME280;67739;52.986;8.894;2023-06-22T02:46:17;101977.47;;;18.65;60.39
78444;BME280;67739;52.986;8.894;2023-06-22T02:48:43;101978.53;;;18.62;59.96
78444;BME280;67739;52.986;8.894;2023-06-22T02:51:08;101973.31;;;18.59;59.98
78444;BME280;67739;52.986;8.894;2023-06-22T02:53:34;101981.50;;;18.58;60.00
78444;BME280;67739;52.986;8.894;2023-06-22T02:56:03;101980.72;;;18.56;60.15
78444;BME280;67739;52.986;8.894;2023-06-22T02:58:31;101984.50;;;18.53;60.50
78444;BME280;67739;52.986;8.894;2023-06-22T03:00:58;101981.00;;;18.51;60.32
78444;BME280;67739;52.986;8.894;2023-06-22T03:03:29;101974.00;;;18.47;60.59
78444;BME280;67739;52.986;8.894;2023-06-22T03:05:57;101984.00;;;18.47;60.29
78444;BME280;67739;52.986;8.894;2023-06-22T03:08:25;101985.19;;;18.43;60.36
78444;BME280;67739;52.986;8.894;2023-06-22T03:10:57;101986.25;;;18.40;60.61
78444;BME280;67739;52.986;8.894;2023-06-22T03:13:22;101984.59;;;18.37;60.51
78444;BME280;67739;52.986;8.894;2023-06-22T03:15:47;101985.66;;;18.35;60.57
78444;BME280;67739;52.986;8.894;2023-06-22T03:18:13;101982.16;;;18.33;60.63
78444;BME280;67739;52.986;8.894;2023-06-22T03:20:38;101982.28;;;18.31;60.96
78444;BME280;67739;52.986;8.894;2023-06-22T03:23:04;101993.22;;;18.30;60.95
78444;BME280;67739;52.986;8.894;2023-06-22T03:25:30;101996.13;;;18.27;60.91
78444;BME280;67739;52.986;8.894;2023-06-22T03:27:58;101993.50;;;18.25;60.87
78444;BME280;67739;52.986;8.894;2023-06-22T03:30:23;101990.88;;;18.24;61.23
78444;BME280;67739;52.986;8.894;2023-06-22T03:32:48;101996.47;;;18.21;61.17
78444;BME280;67739;52.986;8.894;2023-06-22T03:35:14;101997.44;;;18.20;61.10
78444;BME280;67739;52.986;8.894;2023-06-22T03:37:40;102002.13;;;18.18;60.78
78444;BME280;67739;52.986;8.894;2023-06-22T03:40:05;102004.06;;;18.16;61.16
78444;BME280;67739;52.986;8.894;2023-06-22T03:42:33;101999.69;;;18.13;61.49
78444;BME280;67739;52.986;8.894;2023-06-22T03:44:59;102016.06;;;18.12;61.17
78444;BME280;67739;52.986;8.894;2023-06-22T03:47:26;102009.84;;;18.10;61.38
78444;BME280;67739;52.986;8.894;2023-06-22T03:49:51;102009.84;;;18.10;61.50
78444;BME280;67739;52.986;8.894;2023-06-22T03:52:20;102016.25;;;18.09;61.62
78444;BME280;67739;52.986;8.894;2023-06-22T03:54:46;102012.75;;;18.07;61.45
78444;BME280;67739;52.986;8.894;2023-06-22T03:57:11;102020.09;;;18.05;61.53
78444;BME280;67739;52.986;8.894;2023-06-22T03:59:36;102025.53;;;18.05;61.53
78444;BME280;67739;52.986;8.894;2023-06-22T04:02:02;102020.31;;;18.01;61.77
78444;BME280;67739;52.986;8.894;2023-06-22T04:04:27;102014.88;;;18.01;61.45
78444;BME280;67739;52.986;8.894;2023-06-22T04:06:53;102019.53;;;17.99;61.47
78444;BME280;67739;52.986;8.894;2023-06-22T04:09:18;102012.34;;;17.98;61.86
78444;BME280;67739;52.986;8.894;2023-06-22T04:11:44;102017.84;;;17.97;61.59
78444;BME280;67739;52.986;8.894;2023-06-22T04:14:09;102008.84;;;17.96;61.85
78444;BME280;67739;52.986;8.894;2023-06-22T04:16:34;102018.81;;;17.96;61.87
78444;BME280;67739;52.986;8.894;2023-06-22T04:19:00;102014.34;;;17.95;61.58
78444;BME280;67739;52.986;8.894;2023-06-22T04:21:29;102019.78;;;17.95;61.62
78444;BME280;67739;52.986;8.894;2023-06-22T04:23:54;102022.59;;;17.93;61.66
78444;BME280;67739;52.986;8.894;2023-06-22T04:26:20;102018.13;;;17.92;61.83
78444;BME280;67739;52.986;8.894;2023-06-22T04:28:46;102020.84;;;17.92;61.78
78444;BME280;67739;52.986;8.894;2023-06-22T04:31:16;102002.78;;;17.91;61.71
78444;BME280;67739;52.986;8.894;2023-06-22T04:33:41;102019.97;;;17.92;61.81
78444;BME280;67739;52.986;8.894;2023-06-22T04:36:07;102020.84;;;17.92;62.09
78444;BME280;67739;52.986;8.894;2023-06-22T04:38:32;102014.53;;;17.92;62.09
78444;BME280;67739;52.986;8.894;2023-06-22T04:40:58;102018.03;;;17.94;61.97
78444;BME280;67739;52.986;8.894;2023-06-22T04:43:24;102018.03;;;17.94;61.93
78444;BME280;67739;52.986;8.894;2023-06-22T04:45:49;102012.59;;;17.94;61.88
78444;BME280;67739;52.986;8.894;2023-06-22T04:48:17;102015.31;;;17.94;62.03
78444;BME280;67739;52.986;8.894;2023-06-22T04:50:45;102022.50;;;17.95;61.93
78444;BME280;67739;52.986;8.894;2023-06-22T04:53:11;102020.66;;;17.95;61.96
78444;BME280;67739;52.986;8.894;2023-06-22T04:55:38;102018.72;;;17.97;62.58
78444;BME280;67739;52.986;8.894;2023-06-22T04:58:07;102019.53;;;17.99;62.31
78444;BME280;67739;52.986;8.894;2023-06-22T05:00:32;102014.00;;;18.01;62.70
78444;BME280;67739;52.986;8.894;2023-06-22T05:03:01;102012.06;;;18.03;62.68
78444;BME280;67739;52.986;8.894;2023-06-22T05:05:28;102008.28;;;18.06;63.13
78444;BME280;67739;52.986;8.894;2023-06-22T05:07:56;102012.75;;;18.07;62.80
78444;BME280;67739;52.986;8.894;2023-06-22T05:10:25;102015.28;;;18.10;63.33
78444;BME280;67739;52.986;8.894;2023-06-22T05:12:50;102015.19;;;18.11;63.67
78444;BME280;67739;52.986;8.894;2023-06-22T05:15:15;102020.44;;;18.14;63.68
78444;BME280;67739;52.986;8.894;2023-06-22T05:17:41;102006.78;;;18.16;63.93
78444;BME280;67739;52.986;8.894;2023-06-22T05:20:10;102011.03;;;18.20;64.29
78444;BME280;67739;52.986;8.894;2023-06-22T05:22:36;101997.28;;;18.23;64.37
78444;BME280;67739;52.986;8.894;2023-06-22T05:25:01;101997.88;;;18.28;64.39
78444;BME280;67739;52.986;8.894;2023-06-22T05:27:27;101996.72;;;18.32;65.14
78444;BME280;67739;52.986;8.894;2023-06-22T05:29:52;101994.56;;;18.37;64.95
78444;BME280;67739;52.986;8.894;2023-06-22T05:32:17;101996.06;;;18.43;65.45
78444;BME280;67739;52.986;8.894;2023-06-22T05:34:43;101997.41;;;18.50;65.26
78444;BME280;67739;52.986;8.894;2023-06-22T05:37:09;101992.56;;;18.55;65.74
78444;BME280;67739;52.986;8.894;2023-06-22T05:39:34;101992.22;;;18.61;65.92
78444;BME280;67739;52.986;8.894;2023-06-22T05:42:04;101984.66;;;18.66;65.16
78444;BME280;67739;52.986;8.894;2023-06-22T05:44:29;101994.28;;;18.71;65.21
78444;BME280;67739;52.986;8.894;2023-06-22T05:46:55;101992.91;;;18.79;65.49
78444;BME280;67739;52.986;8.894;2023-06-22T05:49:20;101999.81;;;18.84;65.27
78444;BME280;67739;52.986;8.894;2023-06-22T05:51:47;101994.81;;;18.91;65.27
78444;BME280;67739;52.986;8.894;2023-06-22T05:54:12;101997.16;;;18.97;64.68
78444;BME280;67739;52.986;8.894;2023-06-22T05:56:38;101994.06;;;19.03;64.80
78444;BME280;67739;52.986;8.894;2023-06-22T05:59:04;101998.03;;;19.12;64.67
78444;BME280;67739;52.986;8.894;2023-06-22T06:01:30;102000.22;;;19.19;65.00
78444;BME280;67739;52.986;8.894;2023-06-22T06:04:01;102005.09;;;19.28;64.98
78444;BME280;67739;52.986;8.894;2023-06-22T06:06:26;101994.47;;;19.38;64.77
78444;BME280;67739;52.986;8.894;2023-06-22T06:08:53;101993.97;;;19.46;64.68
78444;BME280;67739;52.986;8.894;2023-06-22T06:11:19;101990.66;;;19.55;64.67
78444;BME280;67739;52.986;8.894;2023-06-22T06:13:47;101990.91;;;19.64;64.39
78444;BME280;67739;52.986;8.894;2023-06-22T06:16:12;101999.34;;;19.74;64.61
78444;BME280;67739;52.986;8.894;2023-06-22T06:18:38;101998.63;;;19.85;64.23
78444;BME280;67739;52.986;8.894;2023-06-22T06:21:03;101993.41;;;19.94;64.34
78444;BME280;67739;52.986;8.894;2023-06-22T06:23:28;101989.09;;;20.04;63.56
78444;BME280;67739;52.986;8.894;2023-06-22T06:25:54;101983.88;;;20.14;63.76
78444;BME280;67739;52.986;8.894;2023-06-22T06:28:19;101986.81;;;20.24;62.97
78444;BME280;67739;52.986;8.894;2023-06-22T06:30:45;101986.06;;;20.34;62.71
78444;BME280;67739;52.986;8.894;2023-06-22T06:33:12;101985.38;;;20.45;62.70
78444;BME280;67739;52.986;8.894;2023-06-22T06:35:37;101991.78;;;20.57;62.45
78444;BME280;67739;52.986;8.894;2023-06-22T06:38:03;101980.22;;;20.66;62.56
78444;BME280;67739;52.986;8.894;2023-06-22T06:40:28;101976.59;;;20.78;61.99
78444;BME280;67739;52.986;8.894;2023-06-22T06:42:53;101976.72;;;20.89;62.07
78444;BME280;67739;52.986;8.894;2023-06-22T06:45:22;101972.22;;;21.01;61.54
78444;BME280;67739;52.986;8.894;2023-06-22T06:47:48;101975.03;;;21.12;61.19
78444;BME280;67739;52.986;8.894;2023-06-22T06:50:13;101975.13;;;21.23;60.91
78444;BME280;67739;52.986;8.894;2023-06-22T06:52:39;101976.09;;;21.35;61.22
78444;BME280;67739;52.986;8.894;2023-06-22T06:55:05;101981.63;;;21.46;61.05
78444;BME280;67739;52.986;8.894;2023-06-22T06:57:40;101977.97;;;21.58;60.87
78444;BME280;67739;52.986;8.894;2023-06-22T07:00:13;101979.88;;;21.69;60.62
78444;BME280;67739;52.986;8.894;2023-06-22T07:02:43;101976.31;;;21.79;60.23
78444;BME280;67739;52.986;8.894;2023-06-22T07:05:10;101990.03;;;21.91;60.28
78444;BME280;67739;52.986;8.894;2023-06-22T07:07:36;101986.50;;;22.01;59.81
78444;BME280;67739;52.986;8.894;2023-06-22T07:10:02;101989.38;;;22.11;59.97
78444;BME280;67739;52.986;8.894;2023-06-22T07:12:28;101987.69;;;22.21;59.93
78444;BME280;67739;52.986;8.894;2023-06-22T07:14:53;101981.38;;;22.32;59.61
78444;BME280;67739;52.986;8.894;2023-06-22T07:17:19;101983.25;;;22.42;59.44
78444;BME280;67739;52.986;8.894;2023-06-22T07:19:44;101979.66;;;22.53;59.14
78444;BME280;67739;52.986;8.894;2023-06-22T07:22:10;101983.31;;;22.65;59.53
78444;BME280;67739;52.986;8.894;2023-06-22T07:24:35;101985.97;;;22.77;58.95
78444;BME280;67739;52.986;8.894;2023-06-22T07:27:02;101971.28;;;22.89;59.10
78444;BME280;67739;52.986;8.894;2023-06-22T07:29:28;101978.47;;;23.02;58.98
78444;BME280;67739;52.986;8.894;2023-06-22T07:31:54;101981.19;;;23.13;58.43
78444;BME280;67739;52.986;8.894;2023-06-22T07:34:21;101971.97;;;23.25;58.46
78444;BME280;67739;52.986;8.894;2023-06-22T07:36:47;101963.59;;;23.38;58.11
78444;BME280;67739;52.986;8.894;2023-06-22T07:39:12;101956.16;;;23.51;57.90
78444;BME280;67739;52.986;8.894;2023-06-22T07:41:39;101966.06;;;23.63;57.73
78444;BME280;67739;52.986;8.894;2023-06-22T07:44:04;101975.00;;;23.76;57.39
78444;BME280;67739;52.986;8.894;2023-06-22T07:46:31;101974.69;;;23.90;57.45
78444;BME280;67739;52.986;8.894;2023-06-22T07:48:57;101965.28;;;24.04;57.08
78444;BME280;67739;52.986;8.894;2023-06-22T07:51:22;101954.09;;;24.17;56.77
78444;BME280;67739;52.986;8.894;2023-06-22T07:53:48;101953.94;;;24.29;56.97
78444;BME280;67739;52.986;8.894;2023-06-22T07:56:14;101956.31;;;24.44;56.46
78444;BME280;67739;52.986;8.894;2023-06-22T07:58:44;101948.75;;;24.57;56.41
78444;BME280;67739;52.986;8.894;2023-06-22T08:01:10;101944.75;;;24.71;55.83
78444;BME280;67739;52.986;8.894;2023-06-22T08:03:36;101936.28;;;24.83;55.74
78444;BME280;67739;52.986;8.894;2023-06-22T08:06:02;101934.94;;;24.98;55.51
78444;BME280;67739;52.986;8.894;2023-06-22T08:08:28;101935.56;;;25.12;54.93
78444;BME280;67739;52.986;8.894;2023-06-22T08:10:53;101937.91;;;25.26;54.76
78444;BME280;67739;52.986;8.894;2023-06-22T08:13:19;101934.75;;;25.40;54.63
78444;BME280;67739;52.986;8.894;2023-06-22T08:15:44;101929.00;;;25.53;54.49
78444;BME280;67739;52.986;8.894;2023-06-22T08:18:09;101939.59;;;25.67;53.98
78444;BME280;67739;52.986;8.894;2023-06-22T08:20:35;101932.06;;;25.79;53.68
78444;BME280;67739;52.986;8.894;2023-06-22T08:23:00;101930.78;;;25.92;53.35
78444;BME280;67739;52.986;8.894;2023-06-22T08:25:31;101934.94;;;26.06;53.53
78444;BME280;67739;52.986;8.894;2023-06-22T08:27:56;101932.59;;;26.21;53.72
78444;BME280;67739;52.986;8.894;2023-06-22T08:30:22;101925.81;;;26.34;52.99
78444;BME280;67739;52.986;8.894;2023-06-22T08:32:47;101923.59;;;26.48;52.70
78444;BME280;67739;52.986;8.894;2023-06-22T08:35:13;101924.84;;;26.63;52.67
78444;BME280;67739;52.986;8.894;2023-06-22T08:37:38;101923.47;;;26.76;52.54
78444;BME280;67739;52.986;8.894;2023-06-22T08:40:06;101924.72;;;26.92;52.58
78444;BME280;67739;52.986;8.894;2023-06-22T08:42:36;101922.34;;;27.06;52.65
78444;BME280;67739;52.986;8.894;2023-06-22T08:45:02;101922.69;;;27.21;52.13
78444;BME280;67739;52.986;8.894;2023-06-22T08:47:28;101927.84;;;27.34;51.80
78444;BME280;67739;52.986;8.894;2023-06-22T08:49:53;101923.53;;;27.49;52.07
78444;BME280;67739;52.986;8.894;2023-06-22T08:52:19;101923.88;;;27.64;51.87
78444;BME280;67739;52.986;8.894;2023-06-22T08:54:46;101925.91;;;27.79;51.71
78444;BME280;67739;52.986;8.894;2023-06-22T08:57:11;101920.72;;;27.94;51.42
78444;BME280;67739;52.986;8.894;2023-06-22T08:59:36;101911.69;;;28.10;51.40
78444;BME280;67739;52.986;8.894;2023-06-22T09:02:02;101910.13;;;28.25;51.54
78444;BME280;67739;52.986;8.894;2023-06-22T09:04:27;101901.25;;;28.39;51.15
78444;BME280;67739;52.986;8.894;2023-06-22T09:06:52;101896.84;;;28.55;51.29
78444;BME280;67739;52.986;8.894;2023-06-22T09:09:18;101894.34;;;28.69;50.90
78444;BME280;67739;52.986;8.894;2023-06-22T09:11:44;101894.59;;;28.84;50.88
78444;BME280;67739;52.986;8.894;2023-06-22T09:14:10;101894.13;;;28.97;50.37
78444;BME280;67739;52.986;8.894;2023-06-22T09:16:36;101879.50;;;29.12;50.41
78444;BME280;67739;52.986;8.894;2023-06-22T09:19:01;101894.56;;;29.26;50.28
78444;BME280;67739;52.986;8.894;2023-06-22T09:21:26;101894.09;;;29.39;50.12
78444;BME280;67739;52.986;8.894;2023-06-22T09:23:52;101889.81;;;29.52;49.85
78444;BME280;67739;52.986;8.894;2023-06-22T09:26:18;101901.22;;;29.66;49.82
78444;BME280;67739;52.986;8.894;2023-06-22T09:28:43;101882.38;;;29.77;49.67
78444;BME280;67739;52.986;8.894;2023-06-22T09:31:09;101888.25;;;29.90;49.81
78444;BME280;67739;52.986;8.894;2023-06-22T09:33:37;101882.38;;;30.02;49.54
78444;BME280;67739;52.986;8.894;2023-06-22T09:36:06;101881.03;;;30.14;49.36
78444;BME280;67739;52.986;8.894;2023-06-22T09:38:39;101877.72;;;30.27;49.37
78444;BME280;67739;52.986;8.894;2023-06-22T09:41:04;101866.25;;;30.38;49.35
78444;BME280;67739;52.986;8.894;2023-06-22T09:43:32;101868.47;;;30.50;49.36
78444;BME280;67739;52.986;8.894;2023-06-22T09:45:57;101867.91;;;30.63;49.65
78444;BME280;67739;52.986;8.894;2023-06-22T09:48:23;101867.34;;;30.76;49.31
78444;BME280;67739;52.986;8.894;2023-06-22T09:50:48;101853.97;;;30.87;49.06
78444;BME280;67739;52.986;8.894;2023-06-22T09:53:14;101864.47;;;31.00;48.94
78444;BME280;67739;52.986;8.894;2023-06-22T09:55:39;101852.81;;;31.13;49.17
78444;BME280;67739;52.986;8.894;2023-06-22T09:58:04;101851.34;;;31.25;48.71
78444;BME280;67739;52.986;8.894;2023-06-22T10:00:30;101838.78;;;31.37;48.72
78444;BME280;67739;52.986;8.894;2023-06-22T10:02:55;101843.72;;;31.50;48.84
78444;BME280;67739;52.986;8.894;2023-06-22T10:05:23;101837.34;;;31.64;49.06
78444;BME280;67739;52.986;8.894;2023-06-22T10:07:49;101829.28;;;31.77;48.69
78444;BME280;67739;52.986;8.894;2023-06-22T10:10:15;101828.63;;;31.90;48.89
78444;BME280;67739;52.986;8.894;2023-06-22T10:12:45;101818.81;;;32.02;48.45
78444;BME280;67739;52.986;8.894;2023-06-22T10:15:11;101819.03;;;32.15;48.84
78444;BME280;67739;52.986;8.894;2023-06-22T10:17:37;101821.16;;;32.28;48.72
78444;BME280;67739;52.986;8.894;2023-06-22T10:20:02;101816.66;;;32.42;48.89
78444;BME280;67739;52.986;8.894;2023-06-22T10:22:40;101806.59;;;32.55;48.82
78444;BME280;67739;52.986;8.894;2023-06-22T10:25:07;101806.97;;;32.67;48.89
78444;BME280;67739;52.986;8.894;2023-06-22T10:27:32;101803.50;;;32.80;49.05
78444;BME280;67739;52.986;8.894;2023-06-22T10:29:58;101807.50;;;32.92;48.82
78444;BME280;67739;52.986;8.894;2023-06-22T10:32:23;101804.22;;;33.03;48.59
78444;BME280;67739;52.986;8.894;2023-06-22T10:34:48;101806.69;;;33.13;48.54
78444;BME280;67739;52.986;8.894;2023-06-22T10:37:14;101815.38;;;33.24;48.49
78444;BME280;67739;52.986;8.894;2023-06-22T10:39:39;101804.97;;;33.33;48.42
78444;BME280;67739;52.986;8.894;2023-06-22T10:42:05;101804.00;;;33.41;48.16
78444;BME280;67739;52.986;8.894;2023-06-22T10:44:30;101811.13;;;33.50;48.27
78444;BME280;67739;52.986;8.894;2023-06-22T10:46:58;101804.78;;;33.56;48.21
78444;BME280;67739;52.986;8.894;2023-06-22T10:49:23;101804.81;;;33.62;48.12
78444;BME280;67739;52.986;8.894;2023-06-22T10:51:49;101797.63;;;33.68;48.10
78444;BME280;67739;52.986;8.894;2023-06-22T10:54:14;101803.44;;;33.73;47.86
78444;BME280;67739;52.986;8.894;2023-06-22T10:56:45;101804.78;;;33.77;47.54
78444;BME280;67739;52.986;8.894;2023-06-22T10:59:10;101812.72;;;33.80;47.59
78444;BME280;67739;52.986;8.894;2023-06-22T11:01:35;101806.75;;;33.83;47.26
78444;BME280;67739;52.986;8.894;2023-06-22T11:04:02;101811.06;;;33.86;47.26
78444;BME280;67739;52.986;8.894;2023-06-22T11:06:27;101808.09;;;33.87;47.40
78444;BME280;67739;52.986;8.894;2023-06-22T11:08:52;101808.09;;;33.87;47.27
78444;BME280;67739;52.986;8.894;2023-06-22T11:11:18;101811.94;;;33.86;46.94
78444;BME280;67739;52.986;8.894;2023-06-22T11:13:43;101807.22;;;33.87;46.92
78444;BME280;67739;52.986;8.894;2023-06-22T11:16:09;101794.38;;;33.86;46.62
78444;BME280;67739;52.986;8.894;2023-06-22T11:18:35;101791.78;;;33.84;46.80
78444;BME280;67739;52.986;8.894;2023-06-22T11:21:00;101788.34;;;33.82;46.64
78444;BME280;67739;52.986;8.894;2023-06-22T11:23:25;101784.03;;;33.80;46.44
78444;BME280;67739;52.986;8.894;2023-06-22T11:25:53;101778.66;;;33.78;46.22
78444;BME280;67739;52.986;8.894;2023-06-22T11:28:18;101777.13;;;33.76;46.06
78444;BME280;67739;52.986;8.894;2023-06-22T11:30:43;101775.63;;;33.73;45.90
78444;BME280;67739;52.986;8.894;2023-06-22T11:33:09;101782.25;;;33.72;45.83
78444;BME280;67739;52.986;8.894;2023-06-22T11:35:34;101777.06;;;33.69;45.52
78444;BME280;67739;52.986;8.894;2023-06-22T11:37:59;101768.06;;;33.67;45.28
78444;BME280;67739;52.986;8.894;2023-06-22T11:40:25;101767.19;;;33.66;45.58
78444;BME280;67739;52.986;8.894;2023-06-22T11:42:50;101751.75;;;33.64;45.53
78444;BME280;67739;52.986;8.894;2023-06-22T11:45:16;101755.41;;;33.64;45.30
78444;BME280;67739;52.986;8.894;2023-06-22T11:47:43;101758.19;;;33.64;45.48
78444;BME280;67739;52.986;8.894;2023-06-22T11:50:08;101752.41;;;33.66;45.17
78444;BME280;67739;52.986;8.894;2023-06-22T11:52:34;101746.84;;;33.66;44.96
78444;BME280;67739;52.986;8.894;2023-06-22T11:55:01;101754.13;;;33.67;45.35
78444;BME280;67739;52.986;8.894;2023-06-22T11:57:28;101744.53;;;33.69;45.00
78444;BME280;67739;52.986;8.894;2023-06-22T11:59:55;101747.13;;;33.71;45.41
78444;BME280;67739;52.986;8.894;2023-06-22T12:02:20;101739.44;;;33.73;45.19
78444;BME280;67739;52.986;8.894;2023-06-22T12:04:45;101731.75;;;33.75;45.37
78444;BME280;67739;52.986;8.894;2023-06-22T12:07:11;101734.31;;;33.77;45.33
78444;BME280;67739;52.986;8.894;2023-06-22T12:09:36;101735.84;;;33.79;45.42
78444;BME280;67739;52.986;8.894;2023-06-22T12:12:02;101745.72;;;33.82;45.46
78444;BME280;67739;52.986;8.894;2023-06-22T12:14:28;101735.44;;;33.82;45.29
78444;BME280;67739;52.986;8.894;2023-06-22T12:16:56;101736.09;;;33.84;45.30
78444;BME280;67739;52.986;8.894;2023-06-22T12:19:22;101727.75;;;33.84;45.35
78444;BME280;67739;52.986;8.894;2023-06-22T12:21:47;101729.47;;;33.85;45.25
78444;BME280;67739;52.986;8.894;2023-06-22T12:24:12;101732.25;;;33.85;44.99
78444;BME280;67739;52.986;8.894;2023-06-22T12:26:37;101723.03;;;33.85;44.94
78444;BME280;67739;52.986;8.894;2023-06-22T12:29:03;101722.19;;;33.84;44.71
78444;BME280;67739;52.986;8.894;2023-06-22T12:31:28;101716.81;;;33.83;44.55
78444;BME280;67739;52.986;8.894;2023-06-22T12:33:54;101713.38;;;33.81;44.49
78444;BME280;67739;52.986;8.894;2023-06-22T12:36:19;101712.50;;;33.80;44.58
78444;BME280;67739;52.986;8.894;2023-06-22T12:38:44;101700.91;;;33.77;44.27
78444;BME280;67739;52.986;8.894;2023-06-22T12:41:10;101710.34;;;33.76;44.22
78444;BME280;67739;52.986;8.894;2023-06-22T12:43:35;101698.75;;;33.72;44.31
78444;BME280;67739;52.986;8.894;2023-06-22T12:46:00;101694.63;;;33.68;43.90
78444;BME280;67739;52.986;8.894;2023-06-22T12:48:26;101683.25;;;33.63;44.10
78444;BME280;67739;52.986;8.894;2023-06-22T12:50:52;101681.94;;;33.59;43.85
78444;BME280;67739;52.986;8.894;2023-06-22T12:53:17;101680.63;;;33.55;43.45